This is the latest recevied weather packets stored in our database for station/object OK1KZE-6. If no packets are shown the sender has not sent any weather packets the latest 10 day(s).
| Time | Temp. | Humidity | Pressure | Rain* | Wind** | Luminosity | Snow |
|---|---|---|---|---|---|---|---|
| 1778013908 | 13.89° C | 94% | 1008.5 hPa | - | - | - | - |
| 1778013607 | 13.89° C | 92% | 1008.4 hPa | - | - | - | - |
| 1778013308 | 13.89° C | 89% | 1008 hPa | - | - | - | - |
| 1778013009 | 14.44° C | 82% | 1007.5 hPa | - | - | - | - |
| 1778012708 | 15.56° C | 75% | 1007.6 hPa | - | - | - | - |
| 1778012408 | 16.67° C | 71% | 1007.6 hPa | - | - | - | - |
| 1778012108 | 16.67° C | 67% | 1007.1 hPa | - | - | - | - |
| 1778011808 | 16.67° C | 65% | 1007.1 hPa | - | - | - | - |
| 1778011509 | 16.67° C | 65% | 1007 hPa | - | - | - | - |
| 1778011208 | 16.67° C | 65% | 1007.3 hPa | - | - | - | - |
| 1778010907 | 16.67° C | 66% | 1007.3 hPa | - | - | - | - |
| 1778010608 | 16.67° C | 65% | 1007 hPa | - | - | - | - |
| 1778010308 | 16.67° C | 68% | 1007.2 hPa | - | - | - | - |
| 1778010007 | 15.56° C | 71% | 1007.1 hPa | - | - | - | - |
| 1778009708 | 16.11° C | 70% | 1006.6 hPa | - | - | - | - |
| 1778009108 | 16.11° C | 69% | 1006.5 hPa | - | - | - | - |
| 1778008807 | 16.11° C | 69% | 1006.2 hPa | - | - | - | - |
| 1778008508 | 16.67° C | 68% | 1006.4 hPa | - | - | - | - |
| 1778008207 | 16.67° C | 67% | 1006.4 hPa | - | - | - | - |
| 1778007908 | 16.67° C | 66% | 1006.2 hPa | - | - | - | - |
| 1778007608 | 17.22° C | 65% | 1006.4 hPa | - | - | - | - |
| 1778007308 | 16.67° C | 66% | 1006.5 hPa | - | - | - | - |
| 1778007008 | 16.67° C | 66% | 1006.3 hPa | - | - | - | - |
| 1778006707 | 16.67° C | 69% | 1006.6 hPa | - | - | - | - |
| 1778006408 | 16.67° C | 68% | 1006.6 hPa | - | - | - | - |
* Rain since midnight (hover to see other rain measurements)
** Current wind speed in m/s (hover to see current wind gust speed)